createdAt,value
2018-05-21T00:00:20.486Z,68.10
2018-05-21T00:02:48.083Z,68.00
2018-05-21T00:05:15.759Z,67.90
2018-05-21T00:07:43.226Z,68.10
2018-05-21T00:10:10.764Z,68.40
2018-05-21T00:12:38.225Z,68.10
2018-05-21T00:15:06.145Z,68.10
2018-05-21T00:17:33.751Z,68.10
2018-05-21T00:20:01.435Z,68.10
2018-05-21T00:22:29.134Z,68.10
2018-05-21T00:24:56.655Z,68.30
2018-05-21T00:27:24.126Z,68.00
2018-05-21T00:29:51.603Z,67.90
2018-05-21T00:32:19.272Z,68.30
2018-05-21T00:34:46.882Z,68.10
2018-05-21T00:37:14.559Z,68.20
2018-05-21T00:39:42.102Z,68.00
2018-05-21T00:42:09.571Z,68.40
2018-05-21T00:44:37.810Z,68.40
2018-05-21T00:47:05.399Z,68.40
2018-05-21T00:49:32.866Z,68.40
2018-05-21T00:52:01.153Z,68.40
2018-05-21T00:54:28.618Z,68.40
2018-05-21T00:56:56.074Z,68.50
2018-05-21T00:59:23.581Z,68.90
2018-05-21T01:01:51.053Z,68.80
2018-05-21T01:04:18.514Z,68.80
2018-05-21T01:06:46.298Z,68.60
2018-05-21T01:09:14.058Z,69.00
2018-05-21T01:11:41.746Z,69.10
2018-05-21T01:14:09.278Z,69.00
2018-05-21T01:16:36.751Z,69.50
2018-05-21T01:19:04.507Z,69.50
2018-05-21T01:21:32.265Z,69.90
2018-05-21T01:24:00.035Z,69.40
2018-05-21T01:26:27.502Z,69.90
2018-05-21T01:28:55.258Z,70.10
2018-05-21T01:31:23.035Z,70.60
2018-05-21T01:33:50.790Z,70.10
2018-05-21T01:36:18.257Z,70.40
2018-05-21T01:38:46.010Z,70.40
2018-05-21T01:41:13.502Z,70.40
2018-05-21T01:43:40.962Z,70.60
2018-05-21T01:46:08.613Z,70.50
2018-05-21T01:48:36.074Z,70.60
2018-05-21T01:51:03.540Z,70.40
2018-05-21T01:53:31.225Z,70.50
2018-05-21T01:55:58.777Z,70.40
2018-05-21T01:58:26.250Z,70.30
2018-05-21T02:00:53.754Z,70.40
2018-05-21T02:03:21.526Z,71.20
2018-05-21T02:05:49.277Z,71.40
2018-05-21T02:08:17.098Z,71.40
2018-05-21T02:10:44.811Z,71.40
2018-05-21T02:13:12.281Z,71.40
2018-05-21T02:15:39.750Z,71.20
2018-05-21T02:18:07.493Z,70.70
2018-05-21T02:20:35.262Z,70.60
2018-05-21T02:23:03.017Z,70.50
2018-05-21T02:25:30.533Z,70.60
2018-05-21T02:27:57.990Z,70.30
2018-05-21T02:30:25.614Z,70.30
2018-05-21T02:32:53.158Z,70.30
2018-05-21T02:35:20.651Z,70.20
2018-05-21T02:37:48.382Z,70.40
2018-05-21T02:40:15.849Z,70.70
2018-05-21T02:42:43.322Z,70.90
2018-05-21T02:45:10.974Z,70.80
2018-05-21T02:47:38.522Z,70.80
2018-05-21T02:50:05.986Z,71.10
2018-05-21T02:52:33.454Z,70.90
2018-05-21T02:55:01.730Z,71.40
2018-05-21T02:57:29.275Z,71.40
2018-05-21T02:59:56.743Z,71.60
2018-05-21T03:02:24.206Z,72.10
2018-05-21T03:04:51.670Z,72.00
2018-05-21T03:07:19.330Z,72.00
2018-05-21T03:09:46.876Z,72.00
2018-05-21T03:12:14.331Z,72.30
2018-05-21T03:14:41.829Z,72.50
2018-05-21T03:17:09.471Z,72.40
2018-05-21T03:19:36.931Z,72.50
2018-05-21T03:22:05.167Z,72.80
2018-05-21T03:24:32.852Z,72.70
2018-05-21T03:27:00.542Z,72.90
2018-05-21T03:29:28.070Z,73.00
2018-05-21T03:31:55.844Z,72.90
2018-05-21T03:34:23.602Z,72.80
2018-05-21T03:36:51.066Z,72.80
2018-05-21T03:39:18.527Z,72.80
2018-05-21T03:41:45.998Z,72.80
2018-05-21T03:44:13.654Z,72.80
2018-05-21T03:46:41.154Z,72.80
2018-05-21T03:49:08.616Z,72.80
2018-05-21T03:51:36.117Z,72.90
2018-05-21T03:54:03.585Z,72.90
2018-05-21T03:56:31.041Z,72.90
2018-05-21T03:59:10.337Z,72.80
2018-05-21T04:01:49.883Z,73.10
2018-05-21T04:04:17.370Z,72.90
2018-05-21T04:06:45.139Z,73.00
2018-05-21T04:09:12.605Z,73.20
2018-05-21T04:11:40.366Z,73.50
2018-05-21T04:14:08.003Z,73.60
2018-05-21T04:16:37.115Z,73.80
2018-05-21T04:19:04.579Z,73.80
2018-05-21T04:21:32.234Z,73.80
2018-05-21T04:23:59.696Z,73.60
2018-05-21T04:26:27.159Z,73.60
2018-05-21T04:28:54.631Z,73.60
2018-05-21T04:31:22.174Z,73.40
2018-05-21T04:33:49.731Z,73.70
2018-05-21T04:36:17.467Z,73.70
2018-05-21T04:38:45.158Z,73.80
2018-05-21T04:41:12.634Z,73.40
2018-05-21T04:43:40.382Z,73.50
2018-05-21T04:46:08.067Z,73.40
2018-05-21T04:48:35.542Z,73.50
2018-05-21T04:51:03.071Z,73.70
2018-05-21T04:53:30.786Z,73.60
2018-05-21T04:55:58.290Z,73.50
2018-05-21T04:58:26.052Z,73.70
2018-05-21T05:00:53.526Z,73.80
2018-05-21T05:03:21.285Z,73.40
2018-05-21T05:05:49.040Z,73.10
2018-05-21T05:08:16.515Z,73.20
2018-05-21T05:10:44.114Z,73.40
2018-05-21T05:13:11.729Z,73.10
2018-05-21T05:15:39.191Z,73.20
2018-05-21T05:18:06.662Z,73.50
2018-05-21T05:20:34.256Z,73.10
2018-05-21T05:23:01.770Z,73.60
2018-05-21T05:25:29.318Z,73.40
2018-05-21T05:27:56.774Z,73.80
2018-05-21T05:30:24.542Z,73.40
2018-05-21T05:32:52.003Z,73.20
2018-05-21T05:35:19.766Z,73.20
2018-05-21T05:37:47.282Z,73.40
2018-05-21T05:40:14.746Z,73.60
2018-05-21T05:42:42.223Z,73.50
2018-05-21T05:45:09.941Z,73.70
2018-05-21T05:47:37.670Z,73.80
2018-05-21T05:50:05.155Z,73.80
2018-05-21T05:52:32.806Z,73.80
2018-05-21T05:55:00.274Z,73.80
2018-05-21T05:57:27.742Z,73.80
2018-05-21T05:59:55.266Z,73.90
2018-05-21T06:02:22.729Z,73.60
2018-05-21T06:04:50.491Z,74.10
2018-05-21T06:07:18.254Z,74.20
2018-05-21T06:09:46.022Z,74.40
2018-05-21T06:12:13.786Z,74.70
2018-05-21T06:14:41.250Z,74.40
2018-05-21T06:17:09.012Z,74.40
2018-05-21T06:19:36.775Z,74.30
2018-05-21T06:22:04.239Z,74.40
2018-05-21T06:24:31.999Z,74.50
2018-05-21T06:26:59.474Z,74.20
2018-05-21T06:29:26.929Z,74.10
2018-05-21T06:31:54.390Z,74.20
2018-05-21T06:34:22.197Z,74.70
2018-05-21T06:36:50.515Z,74.10
2018-05-21T06:39:18.282Z,74.10
2018-05-21T06:41:45.745Z,74.50
2018-05-21T06:44:13.202Z,74.90
2018-05-21T06:46:40.963Z,75.00
2018-05-21T06:49:08.422Z,74.60
2018-05-21T06:51:37.414Z,73.50
2018-05-21T06:54:04.874Z,73.70
2018-05-21T06:56:33.843Z,73.50
2018-05-21T06:59:01.313Z,73.50
2018-05-21T07:01:28.767Z,73.00
2018-05-21T07:03:56.225Z,73.40
2018-05-21T07:06:23.707Z,73.60
2018-05-21T07:08:52.696Z,73.30
2018-05-21T07:11:21.658Z,73.80
2018-05-21T07:13:49.453Z,73.80
2018-05-21T07:16:16.914Z,72.40
2018-05-21T07:18:45.910Z,72.60
2018-05-21T07:21:14.883Z,72.90
2018-05-21T07:23:42.359Z,72.90
2018-05-21T07:26:11.319Z,71.30
2018-05-21T07:28:38.817Z,71.30
2018-05-21T07:31:07.783Z,72.00
2018-05-21T07:33:35.242Z,72.00
2018-05-21T07:36:02.730Z,70.70
2018-05-21T07:38:30.186Z,70.60
2018-05-21T07:40:57.943Z,70.60
2018-05-21T07:43:26.944Z,70.20
2018-05-21T07:45:54.414Z,70.20
2018-05-21T07:48:22.079Z,68.70
2018-05-21T07:50:49.622Z,69.00
2018-05-21T07:53:17.086Z,68.40
2018-05-21T07:55:44.846Z,68.20
2018-05-21T07:58:12.584Z,68.10
2018-05-21T08:00:39.989Z,69.10
2018-05-21T08:03:07.522Z,69.00
2018-05-21T08:05:35.197Z,67.40
2018-05-21T08:08:02.669Z,66.10
2018-05-21T08:10:30.135Z,67.10
2018-05-21T08:12:57.590Z,65.80
2018-05-21T08:15:25.141Z,65.80
2018-05-21T08:17:52.702Z,64.80
2018-05-21T08:20:20.926Z,63.90
2018-05-21T08:22:48.386Z,63.70
2018-05-21T08:25:15.874Z,62.20
2018-05-21T08:27:43.646Z,62.00
2018-05-21T08:30:11.401Z,62.50
2018-05-21T08:32:40.370Z,60.70
2018-05-21T08:35:07.858Z,61.50
2018-05-21T08:37:35.323Z,59.90
2018-05-21T08:40:03.005Z,59.60
2018-05-21T08:42:30.561Z,58.60
2018-05-21T08:44:58.306Z,56.30
2018-05-21T08:47:26.077Z,56.90
2018-05-21T08:49:53.535Z,57.20
2018-05-21T08:52:21.216Z,56.80
2018-05-21T08:54:49.669Z,54.10
2018-05-21T08:57:17.127Z,54.10
2018-05-21T08:59:44.894Z,54.90
2018-05-21T09:02:12.350Z,54.20
2018-05-21T09:04:40.106Z,54.60
2018-05-21T09:07:07.574Z,52.40
2018-05-21T09:09:35.338Z,53.00
2018-05-21T09:12:02.802Z,51.50
2018-05-21T09:14:30.429Z,50.40
2018-05-21T09:16:58.021Z,51.20
2018-05-21T09:19:25.482Z,49.10
2018-05-21T09:21:52.948Z,48.10
2018-05-21T09:24:20.403Z,47.70
2018-05-21T09:26:47.869Z,47.00
2018-05-21T09:29:15.622Z,48.00
2018-05-21T09:31:43.084Z,47.00
2018-05-21T09:34:10.554Z,44.70
2018-05-21T09:36:38.014Z,43.10
2018-05-21T09:39:05.475Z,43.00
2018-05-21T09:41:33.223Z,42.50
2018-05-21T09:44:00.682Z,42.40
2018-05-21T09:46:28.440Z,42.70
2018-05-21T09:48:55.894Z,41.80
2018-05-21T09:51:23.363Z,41.50
2018-05-21T09:53:50.835Z,40.70
2018-05-21T09:56:18.587Z,40.00
2018-05-21T09:58:46.347Z,40.40
2018-05-21T10:01:13.814Z,40.10
2018-05-21T10:03:41.430Z,40.30
2018-05-21T10:06:09.030Z,40.90
2018-05-21T10:08:36.522Z,40.30
2018-05-21T10:11:04.256Z,41.10
2018-05-21T10:13:31.726Z,41.50
2018-05-21T10:15:59.259Z,40.90
2018-05-21T10:18:26.720Z,40.00
2018-05-21T10:20:54.314Z,40.30
2018-05-21T10:23:21.770Z,39.80
2018-05-21T10:25:49.312Z,39.60
2018-05-21T10:28:16.798Z,40.40
2018-05-21T10:30:44.449Z,40.60
2018-05-21T10:33:11.990Z,39.50
2018-05-21T10:35:39.454Z,38.50
2018-05-21T10:38:08.438Z,38.90
2018-05-21T10:40:36.024Z,38.90
2018-05-21T10:43:04.243Z,36.90
2018-05-21T10:45:31.742Z,36.80
2018-05-21T10:48:00.122Z,35.70
2018-05-21T10:50:28.496Z,35.80
2018-05-21T10:52:55.954Z,35.80
2018-05-21T10:55:23.414Z,35.70
2018-05-21T10:57:52.050Z,36.50
2018-05-21T11:00:19.519Z,36.40
2018-05-21T11:02:46.985Z,35.70
2018-05-21T11:05:14.476Z,35.10
2018-05-21T11:07:42.158Z,34.40
2018-05-21T11:10:09.624Z,34.50
2018-05-21T11:12:37.849Z,32.10
2018-05-21T11:15:05.328Z,32.00
2018-05-21T11:17:32.994Z,33.00
2018-05-21T11:20:00.753Z,32.30
2018-05-21T11:22:28.522Z,33.90
2018-05-21T11:24:57.478Z,34.30
2018-05-21T11:27:24.976Z,34.20
2018-05-21T11:29:52.738Z,34.10
2018-05-21T11:32:20.503Z,33.90
2018-05-21T11:34:48.727Z,33.80
2018-05-21T11:37:16.345Z,33.80
2018-05-21T11:39:43.802Z,34.30
2018-05-21T11:42:11.254Z,33.20
2018-05-21T11:44:38.826Z,33.20
2018-05-21T11:47:06.287Z,34.20
2018-05-21T11:49:33.742Z,34.60
2018-05-21T11:52:01.399Z,33.20
2018-05-21T11:54:29.010Z,33.70
2018-05-21T11:56:56.475Z,34.60
2018-05-21T11:59:24.075Z,33.30
2018-05-21T12:01:53.112Z,33.30
2018-05-21T12:04:20.546Z,33.30
2018-05-21T12:06:48.006Z,34.20
2018-05-21T12:09:15.669Z,33.80
2018-05-21T12:11:43.210Z,33.30
2018-05-21T12:14:10.975Z,32.50
2018-05-21T12:16:38.432Z,33.20
2018-05-21T12:19:07.435Z,33.00
2018-05-21T12:21:34.890Z,33.00
2018-05-21T12:24:02.346Z,32.30
2018-05-21T12:26:29.838Z,32.70
2018-05-21T12:28:57.570Z,32.90
2018-05-21T12:31:25.332Z,33.20
2018-05-21T12:33:52.795Z,32.60
2018-05-21T12:36:20.375Z,32.60
2018-05-21T12:38:48.630Z,31.90
2018-05-21T12:41:16.086Z,31.80
2018-05-21T12:43:43.561Z,31.50
2018-05-21T12:46:11.311Z,32.10
2018-05-21T12:48:39.074Z,32.80
2018-05-21T12:51:06.539Z,32.90
2018-05-21T12:53:34.010Z,33.70
2018-05-21T12:56:01.667Z,33.90
2018-05-21T12:58:29.134Z,34.40
2018-05-21T13:00:56.670Z,33.80
2018-05-21T13:03:24.434Z,32.70
2018-05-21T13:05:52.201Z,33.20
2018-05-21T13:08:19.686Z,33.70
2018-05-21T13:10:47.345Z,34.50
2018-05-21T13:13:14.887Z,34.30
2018-05-21T13:15:42.651Z,33.40
2018-05-21T13:18:10.221Z,32.10
2018-05-21T13:20:37.875Z,32.20
2018-05-21T13:23:05.634Z,32.50
2018-05-21T13:25:33.100Z,31.80
2018-05-21T13:28:00.571Z,32.30
2018-05-21T13:30:28.231Z,33.60
2018-05-21T13:32:55.693Z,33.90
2018-05-21T13:35:23.234Z,34.80
2018-05-21T13:37:52.848Z,34.10
2018-05-21T13:40:20.302Z,34.80
2018-05-21T13:42:48.066Z,33.70
2018-05-21T13:45:15.534Z,32.60
2018-05-21T13:47:43.290Z,32.30
2018-05-21T13:50:11.049Z,32.00
2018-05-21T13:52:38.819Z,31.20
2018-05-21T13:55:06.586Z,31.30
2018-05-21T13:57:34.043Z,30.90
2018-05-21T14:00:01.807Z,32.00
2018-05-21T14:02:29.270Z,31.70
2018-05-21T14:04:56.735Z,31.60
2018-05-21T14:07:24.489Z,31.80
2018-05-21T14:09:51.956Z,31.00
2018-05-21T14:12:19.716Z,31.90
2018-05-21T14:14:47.174Z,32.20
2018-05-21T14:17:14.683Z,31.30
2018-05-21T14:19:42.306Z,31.00
2018-05-21T14:22:09.774Z,30.70
2018-05-21T14:24:38.145Z,30.40
2018-05-21T14:27:05.607Z,30.40
2018-05-21T14:29:33.912Z,30.30
2018-05-21T14:32:01.446Z,30.30
2018-05-21T14:34:29.910Z,31.70
2018-05-21T14:36:57.403Z,31.70
2018-05-21T14:39:25.138Z,31.70
2018-05-21T14:41:52.894Z,31.50
2018-05-21T14:44:21.894Z,33.40
2018-05-21T14:46:49.358Z,33.40
2018-05-21T14:49:17.045Z,33.60
2018-05-21T14:51:44.503Z,33.80
2018-05-21T14:54:11.955Z,34.10
2018-05-21T14:56:39.491Z,35.10
2018-05-21T14:59:07.254Z,35.90
2018-05-21T15:01:35.019Z,37.20
2018-05-21T15:04:02.796Z,37.00
2018-05-21T15:06:30.169Z,36.90
2018-05-21T15:08:57.640Z,36.60
2018-05-21T15:11:25.090Z,35.80
2018-05-21T15:13:52.623Z,35.00
2018-05-21T15:16:21.583Z,34.60
2018-05-21T15:18:49.038Z,34.70
2018-05-21T15:21:16.522Z,35.00
2018-05-21T15:23:43.991Z,35.60
2018-05-21T15:26:11.522Z,37.00
2018-05-21T15:28:39.127Z,37.60
2018-05-21T15:31:06.582Z,38.90
2018-05-21T15:33:34.055Z,38.30
2018-05-21T15:36:02.445Z,37.70
2018-05-21T15:38:29.889Z,37.70
2018-05-21T15:40:57.342Z,38.10
2018-05-21T15:43:24.872Z,38.30
2018-05-21T15:45:52.284Z,38.70
2018-05-21T15:48:19.745Z,39.00
2018-05-21T15:50:47.206Z,39.50
2018-05-21T15:53:14.670Z,39.50
2018-05-21T15:55:42.130Z,40.00
2018-05-21T15:58:09.629Z,40.50
2018-05-21T16:00:37.394Z,40.90
2018-05-21T16:03:05.154Z,40.90
2018-05-21T16:05:32.611Z,40.70
2018-05-21T16:08:00.380Z,40.60
2018-05-21T16:10:27.847Z,41.10
2018-05-21T16:12:55.504Z,41.10
2018-05-21T16:15:22.953Z,40.90
2018-05-21T16:17:51.064Z,41.10
2018-05-21T16:20:18.515Z,41.20
2018-05-21T16:22:46.205Z,40.90
2018-05-21T16:25:13.818Z,40.90
2018-05-21T16:27:41.281Z,41.10
2018-05-21T16:30:09.144Z,41.20
2018-05-21T16:32:36.519Z,41.70
2018-05-21T16:35:04.266Z,41.60
2018-05-21T16:37:31.725Z,41.60
2018-05-21T16:39:59.292Z,41.80
2018-05-21T16:42:26.937Z,41.80
2018-05-21T16:44:54.708Z,42.10
2018-05-21T16:47:22.475Z,42.40
2018-05-21T16:49:50.038Z,42.30
2018-05-21T16:52:17.507Z,43.30
2018-05-21T16:54:45.766Z,43.30
2018-05-21T16:57:13.232Z,43.20
2018-05-21T16:59:40.990Z,42.80
2018-05-21T17:02:08.755Z,43.10
2018-05-21T17:04:36.222Z,43.00
2018-05-21T17:07:03.674Z,43.40
2018-05-21T17:09:31.130Z,43.40
2018-05-21T17:11:58.799Z,43.90
2018-05-21T17:14:26.285Z,44.30
2018-05-21T17:16:53.810Z,44.20
2018-05-21T17:19:21.278Z,44.60
2018-05-21T17:21:48.742Z,43.90
2018-05-21T17:24:16.195Z,44.20
2018-05-21T17:26:43.955Z,44.70
2018-05-21T17:29:11.714Z,45.20
2018-05-21T17:31:39.178Z,44.80
2018-05-21T17:34:06.655Z,44.70
2018-05-21T17:36:34.324Z,45.30
2018-05-21T17:39:01.857Z,45.20
2018-05-21T17:41:29.310Z,45.60
2018-05-21T17:43:56.777Z,45.60
2018-05-21T17:46:24.267Z,45.90
2018-05-21T17:48:51.842Z,45.60
2018-05-21T17:51:19.452Z,45.50
2018-05-21T17:53:46.909Z,45.50
2018-05-21T17:56:14.385Z,46.30
2018-05-21T17:58:42.289Z,46.10
2018-05-21T18:01:10.057Z,46.10
2018-05-21T18:03:37.611Z,46.50
2018-05-21T18:06:05.067Z,46.30
2018-05-21T18:08:32.578Z,46.60
2018-05-21T18:11:00.047Z,47.20
2018-05-21T18:13:27.739Z,47.00
2018-05-21T18:15:55.261Z,46.90
2018-05-21T18:18:22.718Z,46.80
2018-05-21T18:20:50.181Z,47.50
2018-05-21T18:23:17.872Z,47.50
2018-05-21T18:25:45.328Z,47.50
2018-05-21T18:28:12.995Z,47.40
2018-05-21T18:30:41.227Z,47.90
2018-05-21T18:33:08.687Z,47.80
2018-05-21T18:35:36.465Z,47.70
2018-05-21T18:38:03.921Z,47.90
2018-05-21T18:40:31.691Z,47.70
2018-05-21T18:42:59.158Z,47.90
2018-05-21T18:45:26.615Z,48.10
2018-05-21T18:47:54.077Z,47.70
2018-05-21T18:50:21.538Z,48.10
2018-05-21T18:52:49.208Z,48.00
2018-05-21T18:55:16.662Z,48.20
2018-05-21T18:57:44.134Z,48.10
2018-05-21T19:00:11.763Z,48.10
2018-05-21T19:02:39.126Z,48.20
2018-05-21T19:05:06.581Z,48.30
2018-05-21T19:07:34.186Z,48.50
2018-05-21T19:10:01.640Z,48.70
2018-05-21T19:12:29.102Z,48.50
2018-05-21T19:14:56.714Z,48.90
2018-05-21T19:17:24.178Z,49.50
2018-05-21T19:19:51.855Z,49.90
2018-05-21T19:22:19.309Z,49.90
2018-05-21T19:24:46.850Z,50.00
2018-05-21T19:27:14.623Z,50.00
2018-05-21T19:29:42.382Z,49.80
2018-05-21T19:32:09.846Z,50.20
2018-05-21T19:34:37.531Z,50.50
2018-05-21T19:37:05.005Z,50.20
2018-05-21T19:39:32.458Z,50.20
2018-05-21T19:41:59.929Z,50.70
2018-05-21T19:44:27.389Z,50.40
2018-05-21T19:46:54.890Z,51.10
2018-05-21T19:49:22.662Z,51.10
2018-05-21T19:51:50.130Z,51.40
2018-05-21T19:54:17.791Z,51.70
2018-05-21T19:56:45.247Z,51.60
2018-05-21T19:59:12.703Z,51.50
2018-05-21T20:01:41.158Z,51.70
2018-05-21T20:04:08.693Z,51.80
2018-05-21T20:06:36.108Z,51.80
2018-05-21T20:09:03.595Z,52.00
2018-05-21T20:11:31.022Z,52.60
2018-05-21T20:13:58.784Z,53.50
2018-05-21T20:16:26.454Z,53.00
2018-05-21T20:18:53.914Z,53.00
2018-05-21T20:21:21.460Z,53.30
2018-05-21T20:23:48.917Z,52.80
2018-05-21T20:26:16.378Z,54.00
2018-05-21T20:28:43.958Z,53.70
2018-05-21T20:31:12.189Z,53.60
2018-05-21T20:33:39.666Z,53.60
2018-05-21T20:36:07.133Z,53.50
2018-05-21T20:38:34.695Z,53.70
2018-05-21T20:41:02.154Z,54.00
2018-05-21T20:43:29.807Z,53.70
2018-05-21T20:45:57.578Z,54.00
2018-05-21T20:48:25.043Z,54.60
2018-05-21T20:50:52.498Z,54.30
2018-05-21T20:53:19.963Z,54.20
2018-05-21T20:55:47.718Z,54.60
2018-05-21T20:58:15.394Z,54.40
2018-05-21T21:00:42.857Z,55.00
2018-05-21T21:03:10.318Z,55.30
2018-05-21T21:05:37.778Z,55.20
2018-05-21T21:08:05.305Z,54.90
2018-05-21T21:10:32.821Z,54.90
2018-05-21T21:13:00.539Z,54.80
2018-05-21T21:15:28.011Z,54.90
2018-05-21T21:17:55.764Z,55.30
2018-05-21T21:20:23.521Z,55.40
2018-05-21T21:22:51.285Z,55.40
2018-05-21T21:25:18.751Z,55.50
2018-05-21T21:27:46.583Z,55.60
2018-05-21T21:30:14.038Z,55.30
2018-05-21T21:32:41.728Z,55.50
2018-05-21T21:35:09.114Z,55.60
2018-05-21T21:37:36.649Z,55.80
2018-05-21T21:40:04.118Z,56.20
2018-05-21T21:42:31.581Z,56.20
2018-05-21T21:44:59.242Z,56.30
2018-05-21T21:47:26.713Z,56.90
2018-05-21T21:49:54.246Z,56.90
2018-05-21T21:52:22.017Z,57.60
2018-05-21T21:54:49.479Z,57.50
2018-05-21T21:57:16.945Z,57.30
2018-05-21T21:59:44.406Z,57.40
2018-05-21T22:02:11.875Z,57.30
2018-05-21T22:04:39.526Z,57.30
2018-05-21T22:07:07.763Z,57.40
2018-05-21T22:09:35.459Z,57.80
2018-05-21T22:12:02.919Z,57.80
2018-05-21T22:14:30.671Z,57.90
2018-05-21T22:16:59.633Z,58.10
2018-05-21T22:19:27.122Z,58.00
2018-05-21T22:21:56.132Z,58.90
2018-05-21T22:24:23.884Z,58.90
2018-05-21T22:26:52.849Z,59.10
2018-05-21T22:29:20.330Z,59.10
2018-05-21T22:31:49.299Z,59.10
2018-05-21T22:34:16.786Z,59.00
2018-05-21T22:36:45.746Z,58.90
2018-05-21T22:39:13.222Z,59.00
2018-05-21T22:41:40.679Z,59.30
2018-05-21T22:44:08.134Z,59.80
2018-05-21T22:46:35.596Z,59.70
2018-05-21T22:49:03.054Z,59.70
2018-05-21T22:51:30.514Z,59.40
2018-05-21T22:53:57.970Z,59.40
2018-05-21T22:56:25.757Z,59.80
2018-05-21T22:58:53.206Z,59.80
2018-05-21T23:01:20.676Z,59.80
2018-05-21T23:03:48.135Z,60.30
2018-05-21T23:06:15.593Z,60.30
2018-05-21T23:08:43.351Z,60.00
2018-05-21T23:11:11.110Z,59.80
2018-05-21T23:13:40.415Z,60.00
2018-05-21T23:16:09.383Z,60.00
2018-05-21T23:18:36.875Z,59.90
2018-05-21T23:21:04.333Z,60.80
2018-05-21T23:23:31.790Z,60.40
2018-05-21T23:25:59.466Z,61.30
2018-05-21T23:28:27.006Z,61.80
2018-05-21T23:30:54.478Z,61.20
2018-05-21T23:33:22.226Z,61.20
2018-05-21T23:35:49.689Z,61.20
2018-05-21T23:38:17.454Z,61.80
2018-05-21T23:40:44.913Z,61.20
2018-05-21T23:43:12.674Z,60.60
2018-05-21T23:45:40.131Z,60.30
2018-05-21T23:48:07.610Z,61.00
2018-05-21T23:50:35.135Z,62.50
2018-05-21T23:53:02.814Z,62.70
2018-05-21T23:55:31.786Z,62.70
2018-05-21T23:57:59.264Z,62.70
